1884 NOT_NAMED (1884191N15127)


IBTrACS version v04r00. Visit IBTrACS website for data access.
Please direct all questions to the IBTrACS Q and A forum

Storm track - Intensity - Wind Radii - Intensity Data - Source Data - All data

Summary Information

Storm ID 1884191N15127
Start Jul 8 16Z
Landfall Jul 10 21Z, Jul 11 15Z, Jul 12 00Z
End Jul 13 04Z
ATCF IDs
Track status Best track data.

Storm track plot

Map of storm track

Intensity plots

No Intensity information for this storm


Radial wind information

No radial wind information for this storm


Position and Intensity Table

BASIN ISO_TIME_________ NATURE LAT LON
degrees north degrees east
WP 1884-07-08 16:00:00 NR 14.80 126.70
WP 18:00:00 NR 14.90 126.44
WP 21:00:00 NR 15.03 126.06
WP 1884-07-09 00:00:00 NR 15.16 125.71
WP 03:00:00 NR 15.27 125.39
WP 04:00:00 NR 15.30 125.30
WP 06:00:00 NR 15.35 125.13
WP 09:00:00 NR 15.42 124.91
WP 12:00:00 NR 15.49 124.73
WP 15:00:00 NR 15.57 124.56
WP 16:00:00 NR 15.60 124.50
WP 18:00:00 NR 15.66 124.39
WP 21:00:00 NR 15.77 124.24
WP 1884-07-10 00:00:00 NR 15.92 124.07
WP 03:00:00 NR 16.12 123.88
WP 04:00:00 NR 16.20 123.80
WP 06:00:00 NR 16.37 123.61
WP 09:00:00 NR 16.67 123.29
WP 12:00:00 NR 17.03 122.95
WP 15:00:00 NR 17.45 122.61
WP 16:00:00 NR 17.60 122.50
WP 18:00:00 NR 17.88 122.30
WP 21:00:00 NR 18.35 122.02
WP 1884-07-11 00:00:00 NR 18.88 121.75
WP 03:00:00 NR 19.48 121.49
WP 04:00:00 NR 19.70 121.40
WP 06:00:00 NR 20.18 121.26
WP 09:00:00 NR 20.96 121.05
WP 12:00:00 NR 21.79 120.81
WP 15:00:00 NR 22.63 120.52
WP 16:00:00 NR 22.90 120.40
WP 18:00:00 NR 23.45 120.08
WP 21:00:00 NR 24.27 119.54
WP 1884-07-12 00:00:00 NR 25.04 118.97
WP 03:00:00 NR 25.71 118.45
WP 04:00:00 NR 25.90 118.30
WP 06:00:00 NR 26.23 118.06
WP 09:00:00 NR 26.62 117.77
WP 12:00:00 NR 26.93 117.56
WP 15:00:00 NR 27.21 117.43
WP 16:00:00 NR 27.30 117.40
WP 18:00:00 NR 27.50 117.36
WP 21:00:00 NR 27.81 117.34
WP 1884-07-13 00:00:00 NR 28.14 117.35
WP 03:00:00 NR 28.49 117.39
WP 04:00:00 NR 28.60 117.40

Source Information

Agency Information
USA
TOKYO
CMA
HKO
NEWDELHI
REUNION
BOM
NADI
WELLINGTON
DS824
TD9636 cons_worldwide_trop_cyclone_18710101-19891231-003:Line=23
TD9635
NEUMANN
MLC

All available IBTrACS Data

SEASON BASIN SUBBASIN ISO_TIME_________ NATURE LAT LON DIST2LAND LANDFALL IFLAG USA SSHS TD9636 LAT TD9636 LON TD9636 STAGE STORM SPEED STORM DIR
Year degrees north degrees east km km 1 degrees north degrees east kts degrees
1884 WP MM 1884-07-08 16:00:00 NR 14.80 126.70 267 242 __________O___ -1 14.80 126.70 4 8 291
1884 WP MM 18:00:00 NR 14.90 126.44 242 220 __________P___ -1 14.90 126.44 4 8 291
1884 WP MM 21:00:00 NR 15.03 126.06 220 194 __________P___ -1 15.03 126.06 4 8 291
1884 WP MM 1884-07-09 00:00:00 NR 15.16 125.71 201 186 __________P___ -1 15.16 125.71 4 7 290
1884 WP MM 03:00:00 NR 15.27 125.39 187 181 __________P___ -1 15.27 125.39 4 6 289
1884 WP MM 04:00:00 NR 15.30 125.30 181 169 __________O___ -1 15.30 125.30 4 5 288
1884 WP MM 06:00:00 NR 15.35 125.13 178 169 __________P___ -1 15.35 125.13 4 5 288
1884 WP MM 09:00:00 NR 15.42 124.91 169 165 __________P___ -1 15.42 124.91 4 4 289
1884 WP MM 12:00:00 NR 15.49 124.73 173 170 __________P___ -1 15.49 124.73 4 4 293
1884 WP MM 15:00:00 NR 15.57 124.56 181 180 __________P___ -1 15.57 124.56 4 4 298
1884 WP MM 16:00:00 NR 15.60 124.50 180 179 __________O___ -1 15.60 124.50 4 4 301
1884 WP MM 18:00:00 NR 15.66 124.39 190 190 __________P___ -1 15.66 124.39 4 4 305
1884 WP MM 21:00:00 NR 15.77 124.24 201 201 __________P___ -1 15.77 124.24 4 4 310
1884 WP MM 1884-07-10 00:00:00 NR 15.92 124.07 204 174 __________P___ -1 15.92 124.07 4 5 315
1884 WP MM 03:00:00 NR 16.12 123.88 174 159 __________P___ -1 16.12 123.88 4 6 317
1884 WP MM 04:00:00 NR 16.20 123.80 159 129 __________O___ -1 16.20 123.80 4 7 315
1884 WP MM 06:00:00 NR 16.37 123.61 129 88 __________P___ -1 16.37 123.61 4 8 314
1884 WP MM 09:00:00 NR 16.67 123.29 88 53 __________P___ -1 16.67 123.29 4 9 316
1884 WP MM 12:00:00 NR 17.03 122.95 53 24 __________P___ -1 17.03 122.95 4 10 320
1884 WP MM 15:00:00 NR 17.45 122.61 30 30 __________P___ -1 17.45 122.61 4 11 323
1884 WP MM 16:00:00 NR 17.60 122.50 35 21 __________O___ -1 17.60 122.50 4 10 326
1884 WP MM 18:00:00 NR 17.88 122.30 21 0 __________P___ -1 17.88 122.30 4 11 328
1884 WP MM 21:00:00 NR 18.35 122.02 0 10 __________P___ -1 18.35 122.02 4 11 332
1884 WP MM 1884-07-11 00:00:00 NR 18.88 121.75 54 54 __________P___ -1 18.88 121.75 4 12 336
1884 WP MM 03:00:00 NR 19.48 121.49 112 112 __________P___ -1 19.48 121.49 4 13 338
1884 WP MM 04:00:00 NR 19.70 121.40 133 133 __________O___ -1 19.70 121.40 4 15 343
1884 WP MM 06:00:00 NR 20.18 121.26 183 101 __________P___ -1 20.18 121.26 4 16 345
1884 WP MM 09:00:00 NR 20.96 121.05 101 11 __________P___ -1 20.96 121.05 4 17 346
1884 WP MM 12:00:00 NR 21.79 120.81 11 0 __________P___ -1 21.79 120.81 4 17 344
1884 WP MM 15:00:00 NR 22.63 120.52 0 0 __________P___ -1 22.63 120.52 4 18 341
1884 WP MM 16:00:00 NR 22.90 120.40 0 0 __________O___ -1 22.90 120.40 4 18 334
1884 WP MM 18:00:00 NR 23.45 120.08 10 10 __________P___ -1 23.45 120.08 4 19 330
1884 WP MM 21:00:00 NR 24.27 119.54 87 0 __________P___ -1 24.27 119.54 4 19 327
1884 WP MM 1884-07-12 00:00:00 NR 25.04 118.97 0 0 __________P___ -1 25.04 118.97 4 17 325
1884 WP MM 03:00:00 NR 25.71 118.45 0 0 __________P___ -1 25.71 118.45 4 16 325
1884 WP MM 04:00:00 NR 25.90 118.30 0 0 __________O___ -1 25.90 118.30 4 13 326
1884 WP MM 06:00:00 NR 26.23 118.06 0 0 __________P___ -1 26.23 118.06 4 10 326
1884 WP MM 09:00:00 NR 26.62 117.77 0 0 __________P___ -1 26.62 117.77 4 8 328
1884 WP MM 12:00:00 NR 26.93 117.56 0 0 __________P___ -1 26.93 117.56 4 7 333
1884 WP MM 15:00:00 NR 27.21 117.43 0 0 __________P___ -1 27.21 117.43 4 6 339
1884 WP MM 16:00:00 NR 27.30 117.40 0 0 __________O___ -1 27.30 117.40 4 6 349
1884 WP MM 18:00:00 NR 27.50 117.36 0 0 __________P___ -1 27.50 117.36 4 6 354
1884 WP MM 21:00:00 NR 27.81 117.34 0 0 __________P___ -1 27.81 117.34 4 6 0
1884 WP MM 1884-07-13 00:00:00 NR 28.14 117.35 0 0 __________P___ -1 28.14 117.35 4 7 3
1884 WP MM 03:00:00 NR 28.49 117.39 0 0 __________P___ -1 28.49 117.39 4 7 4
1884 WP MM 04:00:00 NR 28.60 117.40 0 __________O___ -1 28.60 117.40 4 7 0